Estación Meteorológica Peña el Pijo (Robertgarden) [ 05/26/19 18:44:14 CEST ]

Fecha Hora Presion(HPa) Temp (°C) Humedad % Rocio (°C) Viento ( m/s) Direccion Lluvia 1Hora(mm) Lluvia 24H(mm) LLuvia Total(mm)
2018-Dec-29 01:01:52 1014.800 1.9 80 -1.2         160.58
2018-Dec-29 02:01:44 1014.500 0.3 82 -2.4         160.58
2018-Dec-29 03:03:11 1014.900 0.2 83 -2.3         160.58
2018-Dec-29 04:02:01 1014.900 1.1 84 -1.4         160.58
2018-Dec-29 05:02:00 1014.500 1.4 84 -1.1         160.58
2018-Dec-29 06:01:43 1013.800 1.6 84 -0.9         160.58
2018-Dec-29 07:01:39 1014.200 1.8 84 -0.7         160.58
2018-Dec-29 08:01:51 1014.600 2.1 85 -0.2         160.58
2018-Dec-29 09:01:47 1015.200 2.3 85 0.0         160.58
2018-Dec-29 10:01:47 1015.600 3.0 85 0.7         160.58
2018-Dec-29 11:02:02 1015.600 3.6 85 1.3         160.58
2018-Dec-29 12:01:56 1015.500 4.1 86 1.9         160.58
2018-Dec-29 13:02:04 1014.900 4.8 86 2.6         160.58
2018-Dec-29 14:02:02 1014.200 6.7 85 4.3         160.58
2018-Dec-29 15:01:59 1014.300 7.4 80 4.2         160.58
2018-Dec-29 16:01:51 1014.600 7.6 76 3.6         160.58
2018-Dec-29 17:01:52 1014.900 7.2 74 2.9         160.58
2018-Dec-29 18:01:43 1015.100 6.9 76 2.9         160.58
2018-Dec-29 19:01:51 1015.300 6.5 80 3.3 1.4 ENE     160.58
2018-Dec-29 20:01:46 1015.600 6.1 83 3.4         160.58
2018-Dec-29 21:01:47 1016.000 5.9 85 3.5 1.4 ENE     160.58
2018-Dec-29 22:01:46 1016.200 5.9 87 3.9 0.7 ENE     160.58
2018-Dec-29 23:01:43 1016.200 5.8 88 4.0         160.58

Temperatura Máxima:    Temperatura Mínima:
Presión Máxima:1016.200 Hpa    Presión Mínima:1013.800 Hpa


Volver